Time;durP1;ratioP1;P1;durP2;ratioP2;P2;SDS_P1;SDS_P2;PMS_P1;PMS_P2;Temp;Humidity;BMP_temperature;BMP_pressure;BME280_temperature;BME280_humidity;BME280_pressure;Samples;Min_cycle;Max_cycle;Signal;HPM_P1;HPM_P2
2022/01/29 00:00:59;;;;;;;11.27;6.70;;;1.90;99.90;;;1.00;100.00;98815.63;5038626;28;20399;-38
2022/01/29 00:03:30;;;;;;;11.15;6.35;;;1.90;99.90;;;1.03;100.00;98808.78;5040659;28;20406;-39
2022/01/29 00:05:57;;;;;;;11.63;7.10;;;1.90;99.90;;;1.04;100.00;98799.25;5040218;28;20063;-42
2022/01/29 00:08:23;;;;;;;10.75;6.50;;;1.90;99.90;;;1.06;100.00;98800.19;5030772;28;20041;-40
2022/01/29 00:10:54;;;;;;;13.88;7.50;;;1.90;99.90;;;1.10;100.00;98799.44;5038545;28;20463;-39
2022/01/29 00:13:19;;;;;;;11.35;7.25;;;2.00;99.90;;;1.14;100.00;98798.66;5042785;28;20043;-39
2022/01/29 00:15:45;;;;;;;12.82;7.05;;;2.00;99.90;;;1.14;100.00;98790.84;5039894;28;20018;-38
2022/01/29 00:18:11;;;;;;;12.57;7.65;;;2.00;99.90;;;1.03;100.00;98775.00;5038171;28;20025;-36
2022/01/29 00:20:38;;;;;;;14.48;8.15;;;2.00;99.90;;;1.20;100.00;98785.78;5038509;28;20033;-41
2022/01/29 00:23:03;;;;;;;15.10;7.38;;;2.00;99.90;;;1.17;100.00;98780.53;5035019;28;20570;-38
2022/01/29 00:25:29;;;;;;;12.10;7.35;;;2.10;99.90;;;1.24;100.00;98786.72;5035887;28;20044;-41
2022/01/29 00:27:56;;;;;;;10.23;7.13;;;2.10;99.90;;;1.20;100.00;98790.97;5039468;28;20050;-39
2022/01/29 00:30:29;;;;;;;10.88;6.63;;;2.10;99.90;;;1.21;100.00;98790.16;5039283;28;20387;-39
2022/01/29 00:32:55;;;;;;;13.65;7.60;;;2.10;99.90;;;1.18;100.00;98782.28;5038482;28;20111;-37
2022/01/29 00:35:21;;;;;;;12.35;7.20;;;2.10;99.90;;;1.22;100.00;98783.22;5042127;28;20274;-39
2022/01/29 00:37:47;;;;;;;10.82;6.80;;;2.10;99.90;;;1.21;100.00;98777.16;5044633;28;20045;-39
2022/01/29 00:40:13;;;;;;;12.65;6.40;;;2.10;99.90;;;1.14;100.00;98770.06;5042733;28;20028;-40
2022/01/29 00:42:40;;;;;;;12.63;6.25;;;2.10;99.90;;;1.22;100.00;98771.13;5046914;28;20041;-41
2022/01/29 00:45:06;;;;;;;13.80;6.97;;;2.10;99.90;;;1.21;100.00;98771.09;5042106;28;20506;-40
2022/01/29 00:47:32;;;;;;;12.27;6.18;;;2.10;99.90;;;1.16;100.00;98746.72;5045264;28;20349;-40
2022/01/29 00:49:58;;;;;;;11.02;6.47;;;2.10;99.90;;;1.18;100.00;98747.63;5043902;28;20128;-40
2022/01/29 00:52:24;;;;;;;11.70;6.15;;;2.00;99.90;;;1.15;100.00;98735.44;5043497;28;20100;-39
2022/01/29 00:54:50;;;;;;;11.82;5.50;;;2.00;99.90;;;1.12;100.00;98728.44;5048857;28;20330;-38
2022/01/29 00:57:16;;;;;;;10.88;6.68;;;2.00;99.90;;;1.05;100.00;98721.34;5044335;28;20032;-40
2022/01/29 00:59:42;;;;;;;11.75;6.93;;;2.00;99.90;;;1.07;100.00;98731.78;5041403;28;20025;-40
2022/01/29 01:02:09;;;;;;;10.15;6.07;;;1.90;99.90;;;1.00;100.00;98722.09;5042965;28;20167;-43
2022/01/29 01:04:38;;;;;;;12.93;6.53;;;1.90;99.90;;;1.02;100.00;98723.88;5044384;28;20154;-41
2022/01/29 01:07:08;;;;;;;13.48;6.80;;;1.90;99.90;;;1.12;100.00;98745.75;5044210;28;20029;-40
2022/01/29 01:09:34;;;;;;;14.45;6.93;;;1.90;99.90;;;0.95;100.00;98727.19;5038898;28;20039;-42
2022/01/29 01:12:00;;;;;;;10.20;6.32;;;2.00;99.90;;;1.03;100.00;98746.44;5041308;28;20033;-39
2022/01/29 01:14:26;;;;;;;13.55;6.97;;;2.00;99.90;;;1.11;100.00;98759.59;5045660;28;20076;-41
2022/01/29 01:16:51;;;;;;;9.10;5.55;;;2.00;99.90;;;1.15;100.00;98751.03;5036771;28;20102;-42
2022/01/29 01:19:17;;;;;;;14.93;7.03;;;2.00;99.90;;;1.14;100.00;98749.28;5040696;28;20033;-40
2022/01/29 01:21:43;;;;;;;9.38;6.10;;;2.00;99.90;;;1.16;100.00;98757.97;5041731;28;20041;-40
2022/01/29 01:24:08;;;;;;;9.65;5.88;;;2.00;99.90;;;1.19;100.00;98751.97;5042600;28;20040;-41
2022/01/29 01:26:34;;;;;;;13.00;5.53;;;2.00;99.90;;;1.20;100.00;98748.53;5041581;28;20103;-42
2022/01/29 01:29:00;;;;;;;12.13;5.97;;;2.10;99.90;;;1.24;100.00;98747.75;5040565;28;20068;-42
2022/01/29 01:31:26;;;;;;;11.90;5.68;;;2.10;99.90;;;1.27;100.00;98750.41;5043915;28;20048;-42
2022/01/29 01:33:52;;;;;;;9.60;5.70;;;2.10;99.90;;;1.21;100.00;98732.97;5036908;28;20111;-39
2022/01/29 01:36:21;;;;;;;10.90;5.78;;;2.10;99.90;;;1.22;100.00;98750.31;5039960;28;20044;-40
2022/01/29 01:38:52;;;;;;;12.80;5.60;;;2.10;99.90;;;1.26;100.00;98746.94;5042845;28;20391;-40
2022/01/29 01:41:23;;;;;;;10.85;5.78;;;2.10;99.90;;;1.32;100.00;98759.19;5046283;28;20075;-41
2022/01/29 01:43:49;;;;;;;9.55;5.43;;;2.10;99.90;;;1.31;100.00;98753.13;5041642;28;20032;-40
2022/01/29 01:46:16;;;;;;;10.85;5.18;;;2.20;99.90;;;1.32;100.00;98762.66;5043042;28;20017;-42
2022/01/29 01:48:41;;;;;;;8.90;5.25;;;2.20;99.90;;;1.30;100.00;98769.56;5043683;28;20738;-39
2022/01/29 01:51:07;;;;;;;11.10;5.65;;;2.20;99.90;;;1.27;100.00;98764.28;5043428;28;20033;-39
2022/01/29 01:53:33;;;;;;;9.27;5.25;;;2.20;99.90;;;1.31;100.00;98768.72;5037904;28;20036;-39
2022/01/29 01:55:59;;;;;;;7.85;4.88;;;2.20;99.90;;;1.32;100.00;98765.25;5042092;28;20079;-39
2022/01/29 01:58:25;;;;;;;9.38;5.90;;;2.20;99.90;;;1.27;100.00;98759.06;5043853;28;20241;-40
2022/01/29 02:00:51;;;;;;;8.38;5.38;;;2.20;99.90;;;1.27;100.00;98750.41;5035231;28;20398;-42
2022/01/29 02:03:17;;;;;;;9.05;5.55;;;2.20;99.90;;;1.33;100.00;98760.97;5044901;28;20040;-42
2022/01/29 02:05:45;;;;;;;11.05;5.93;;;2.20;99.90;;;1.33;100.00;98755.75;5041169;28;20036;-41
2022/01/29 02:08:12;;;;;;;9.48;5.78;;;2.20;99.90;;;1.33;100.00;98743.63;5040395;28;20526;-39
2022/01/29 02:10:37;;;;;;;9.95;5.45;;;2.20;99.90;;;1.32;100.00;98734.06;5041651;28;21694;-38
2022/01/29 02:13:04;;;;;;;10.88;6.72;;;2.20;99.90;;;1.23;100.00;98727.81;5043178;28;20029;-42
2022/01/29 02:15:31;;;;;;;10.38;6.13;;;2.10;99.90;;;1.25;100.00;98719.19;5036198;28;20026;-40
2022/01/29 02:17:57;;;;;;;9.35;6.20;;;2.10;99.90;;;1.24;100.00;98714.84;5037305;28;20632;-39
2022/01/29 02:20:27;;;;;;;11.10;6.22;;;2.10;99.90;;;1.26;100.00;98702.75;5036211;28;20086;-38
2022/01/29 02:22:53;;;;;;;11.73;6.38;;;2.10;99.90;;;1.24;100.00;98694.06;5040957;28;20032;-38
2022/01/29 02:25:43;;;;;;;11.25;6.75;;;2.10;99.90;;;1.23;100.00;98687.09;5036620;28;20040;-41
2022/01/29 02:28:22;;;;;;;10.55;6.25;;;2.10;99.90;;;1.28;100.00;98695.00;5035426;28;20028;-39
2022/01/29 02:30:57;;;;;;;12.27;6.35;;;2.10;99.90;;;1.22;100.00;98681.84;5037325;28;20052;-41
2022/01/29 02:33:22;;;;;;;11.15;6.70;;;2.10;99.90;;;1.16;100.00;98684.34;5041099;28;20033;-40
2022/01/29 02:35:51;;;;;;;12.27;6.40;;;2.00;99.90;;;0.91;100.00;98648.31;5040719;28;20729;-39
2022/01/29 02:38:20;;;;;;;9.32;5.68;;;2.00;99.90;;;1.02;100.00;98674.50;5042430;28;20056;-40
2022/01/29 02:40:49;;;;;;;10.50;6.47;;;1.90;99.90;;;0.95;100.00;98677.81;5040670;28;20108;-41
2022/01/29 02:43:16;;;;;;;9.68;5.85;;;1.80;99.90;;;0.87;100.00;98676.78;5035493;28;20053;-39
2022/01/29 02:45:43;;;;;;;9.43;5.50;;;1.70;99.90;;;0.86;100.00;98675.03;5049670;28;20083;-43
2022/01/29 02:48:10;;;;;;;9.52;5.47;;;1.70;99.90;;;0.86;100.00;98670.72;5042940;28;20167;-41
2022/01/29 02:50:36;;;;;;;8.98;5.45;;;1.70;99.90;;;0.85;100.00;98665.50;5039697;28;20041;-40
2022/01/29 02:53:03;;;;;;;9.18;5.55;;;1.70;99.90;;;0.81;100.00;98655.88;5040113;28;20280;-39
2022/01/29 02:55:29;;;;;;;8.73;5.05;;;1.60;99.90;;;0.75;100.00;98651.41;5044523;28;20107;-39
2022/01/29 02:57:56;;;;;;;8.57;4.93;;;1.60;99.90;;;0.73;100.00;98645.31;5041836;28;20021;-40
2022/01/29 03:00:22;;;;;;;8.13;4.95;;;1.60;99.90;;;0.67;100.00;98634.81;5039185;28;20036;-44
2022/01/29 03:02:48;;;;;;;8.75;5.20;;;1.50;99.90;;;0.65;100.00;98629.56;5041167;28;20128;-39
2022/01/29 03:05:14;;;;;;;8.80;4.85;;;1.50;99.90;;;0.67;100.00;98624.44;5045378;28;20059;-40
2022/01/29 03:07:39;;;;;;;11.45;5.00;;;1.50;99.90;;;0.68;100.00;98605.38;5039247;28;20048;-41
2022/01/29 03:10:07;;;;;;;10.23;5.05;;;1.50;99.90;;;0.70;100.00;98603.69;5042189;28;20506;-42
2022/01/29 03:12:33;;;;;;;6.82;4.35;;;1.50;99.90;;;0.78;100.00;98603.88;5044788;28;20436;-41
2022/01/29 03:14:59;;;;;;;7.20;4.70;;;1.60;99.90;;;0.82;100.00;98600.50;5041013;28;20031;-39
2022/01/29 03:17:26;;;;;;;8.63;5.10;;;1.70;99.90;;;0.86;100.00;98600.59;5042489;28;20104;-39
2022/01/29 03:19:53;;;;;;;6.65;4.20;;;1.70;99.90;;;0.91;100.00;98596.34;5039556;28;20033;-39
2022/01/29 03:22:19;;;;;;;8.45;5.13;;;1.80;99.90;;;0.89;100.00;98582.47;5035660;28;20960;-39
2022/01/29 03:24:45;;;;;;;6.80;4.40;;;1.80;99.90;;;0.99;100.00;98590.44;5040871;28;20120;-38
2022/01/29 03:27:11;;;;;;;8.25;4.47;;;1.80;99.90;;;1.07;100.00;98594.06;5039315;28;20533;-40
2022/01/29 03:29:37;;;;;;;5.45;4.00;;;1.90;99.90;;;1.13;100.00;98586.38;5037921;28;20037;-42
2022/01/29 03:32:04;;;;;;;7.88;4.50;;;2.00;99.90;;;1.10;100.00;98586.34;5039639;28;20056;-39
2022/01/29 03:34:30;;;;;;;8.52;4.07;;;2.00;99.90;;;1.17;100.00;98597.72;5041838;28;20109;-40
2022/01/29 03:36:56;;;;;;;6.15;4.22;;;2.00;99.90;;;1.20;100.00;98593.47;5042353;28;20025;-42
2022/01/29 03:39:26;;;;;;;8.93;3.97;;;2.00;99.90;;;1.18;100.00;98595.16;5039714;28;20475;-41
2022/01/29 03:41:52;;;;;;;5.80;3.88;;;2.10;99.90;;;1.25;100.00;98602.22;5037265;28;20028;-40
2022/01/29 03:44:18;;;;;;;9.10;4.30;;;2.10;99.90;;;1.28;100.00;98591.91;5038737;28;20040;-43
2022/01/29 03:46:45;;;;;;;7.25;3.75;;;2.10;99.90;;;1.31;100.00;98598.88;5036664;28;20063;-41
2022/01/29 03:49:11;;;;;;;6.72;3.53;;;2.10;99.90;;;1.33;100.00;98600.66;5038448;28;20033;-39
2022/01/29 03:51:37;;;;;;;7.68;3.78;;;2.20;99.90;;;1.37;100.00;98595.53;5035282;28;20510;-43
2022/01/29 03:54:03;;;;;;;7.70;3.78;;;2.20;99.90;;;1.33;100.00;98582.47;5036909;28;20098;-41
2022/01/29 03:56:29;;;;;;;5.78;3.28;;;2.20;99.90;;;1.34;100.00;98583.34;5039163;28;20506;-41
2022/01/29 03:58:54;;;;;;;6.03;3.17;;;2.20;99.90;;;1.37;100.00;98591.19;5044496;28;20033;-41
2022/01/29 04:01:20;;;;;;;5.57;3.53;;;2.20;99.90;;;1.37;100.00;98582.53;5035425;28;20048;-43
2022/01/29 04:03:46;;;;;;;6.20;3.88;;;2.20;99.90;;;1.32;100.00;98585.91;5039322;28;20556;-41
2022/01/29 04:06:12;;;;;;;5.90;3.55;;;2.20;99.90;;;1.34;100.00;98579.00;5035464;28;20319;-42
2022/01/29 04:08:43;;;;;;;6.75;3.55;;;2.20;99.90;;;1.33;100.00;98573.81;5037526;28;20043;-42
2022/01/29 04:11:12;;;;;;;7.40;4.30;;;2.10;99.90;;;1.33;100.00;98568.59;5036502;28;20455;-40
2022/01/29 04:13:44;;;;;;;7.13;3.63;;;2.20;99.90;;;1.30;100.00;98559.00;5037051;28;20025;-38
2022/01/29 04:16:15;;;;;;;7.75;3.28;;;2.20;99.90;;;1.34;100.00;98563.41;5037271;28;20044;-39
2022/01/29 04:18:42;;;;;;;6.88;3.22;;;2.20;99.90;;;1.37;100.00;98567.81;5034338;28;20124;-41
2022/01/29 04:21:07;;;;;;;8.77;3.50;;;2.20;99.90;;;1.39;100.00;98565.25;5038207;28;20048;-37
2022/01/29 04:23:34;;;;;;;7.82;3.30;;;2.20;99.90;;;1.37;100.00;98559.16;5040606;28;20052;-38
2022/01/29 04:26:01;;;;;;;5.43;3.25;;;2.20;99.90;;;1.34;100.00;98563.41;5038727;28;20051;-40
2022/01/29 04:28:31;;;;;;;6.03;3.25;;;2.20;99.90;;;1.32;100.00;98572.91;5039007;28;20041;-39
2022/01/29 04:31:02;;;;;;;5.70;3.17;;;2.20;99.90;;;1.23;100.00;98577.94;5042014;28;20083;-38
2022/01/29 04:33:28;;;;;;;6.00;3.40;;;2.20;99.90;;;1.27;100.00;98573.66;5038661;28;20144;-39
2022/01/29 04:35:59;;;;;;;5.70;3.33;;;2.10;99.90;;;1.25;100.00;98573.63;5037977;28;20037;-42
2022/01/29 04:38:27;;;;;;;4.40;2.90;;;2.10;99.90;;;1.30;100.00;98569.41;5041715;28;20067;-41
2022/01/29 04:40:54;;;;;;;4.85;2.60;;;2.10;99.90;;;1.23;100.00;98564.94;5037543;28;20159;-40
2022/01/29 04:43:20;;;;;;;4.63;3.15;;;2.10;99.90;;;1.17;100.00;98554.44;5041654;28;20403;-40
2022/01/29 04:45:46;;;;;;;6.55;3.15;;;2.00;99.90;;;1.15;100.00;98553.53;5037304;28;20162;-40
2022/01/29 04:48:12;;;;;;;5.13;2.92;;;2.00;99.90;;;1.10;100.00;98552.56;5034731;28;20024;-41
2022/01/29 04:50:38;;;;;;;7.40;3.40;;;2.00;99.90;;;1.14;100.00;98547.44;5037286;28;20025;-38
2022/01/29 04:53:04;;;;;;;5.15;3.15;;;2.00;99.90;;;1.15;100.00;98553.53;5061598;22;20068;-44
2022/01/29 04:55:31;;;;;;;5.47;2.97;;;2.00;99.90;;;1.11;100.00;98563.00;5016360;28;20052;-44
2022/01/29 04:57:56;;;;;;;6.30;3.50;;;2.00;99.90;;;1.16;100.00;98572.59;5020010;28;20021;-42
2022/01/29 05:00:22;;;;;;;6.13;3.33;;;2.00;99.90;;;1.22;100.00;98571.00;5021362;28;20041;-46
2022/01/29 05:02:53;;;;;;;8.10;4.60;;;2.00;99.90;;;1.23;100.00;98572.75;5014587;28;20208;-44
2022/01/29 05:05:20;;;;;;;8.27;5.15;;;2.10;99.90;;;1.24;100.00;98571.91;5000721;28;20771;-45
2022/01/29 05:07:46;;;;;;;10.35;5.53;;;2.00;99.90;;;1.21;100.00;98574.44;5022253;28;20411;-46
2022/01/29 05:10:13;;;;;;;10.38;6.45;;;2.10;99.90;;;1.33;100.00;98590.28;5022026;28;20498;-44
2022/01/29 05:12:49;;;;;;;10.45;5.65;;;2.10;99.90;;;1.33;100.00;98608.47;5022211;28;20052;-45
2022/01/29 05:15:25;;;;;;;10.77;5.65;;;2.10;99.90;;;1.23;100.00;98621.25;5019477;28;20037;-47
2022/01/29 05:28:49;;;;;;;14.15;7.20;;;1.80;99.90;;;0.72;100.00;98609.81;5021946;28;20035;-46
2022/01/29 05:31:14;;;;;;;15.90;7.68;;;1.70;99.90;;;0.79;100.00;98611.72;5023747;28;20345;-43
2022/01/29 05:33:40;;;;;;;13.10;7.03;;;1.70;99.90;;;0.75;100.00;98610.78;5026684;28;20068;-47
2022/01/29 05:36:06;;;;;;;14.45;7.65;;;1.60;99.90;;;0.71;100.00;98608.06;5025008;28;20025;-44
2022/01/29 05:38:33;;;;;;;12.18;7.72;;;1.60;99.90;;;0.69;100.00;98600.22;5029401;28;20029;-46
2022/01/29 05:40:59;;;;;;;15.30;7.30;;;1.60;99.90;;;0.76;100.00;98601.25;5024876;28;20111;-47
2022/01/29 05:43:24;;;;;;;12.25;7.15;;;1.60;99.90;;;0.82;100.00;98601.38;5024630;28;20442;-44
2022/01/29 05:45:50;;;;;;;14.63;8.48;;;1.70;99.90;;;0.78;100.00;98598.69;5020508;28;20052;-45
2022/01/29 05:48:16;;;;;;;13.93;9.00;;;1.70;99.90;;;0.69;100.00;98597.63;5025249;28;20037;-46
2022/01/29 05:50:42;;;;;;;14.45;8.63;;;1.60;99.90;;;0.69;100.00;98588.97;5023586;28;20022;-48
2022/01/29 05:53:07;;;;;;;11.55;7.85;;;1.60;99.90;;;0.62;100.00;98581.91;5003987;28;20037;-47
2022/01/29 05:55:33;;;;;;;14.68;9.57;;;1.60;99.90;;;0.58;100.00;98583.56;5024182;28;20115;-43
2022/01/29 05:57:59;;;;;;;17.40;9.85;;;1.60;99.90;;;0.63;100.00;98578.44;5024201;28;20037;-45
2022/01/29 06:00:24;;;;;;;15.52;9.82;;;1.50;99.90;;;0.57;100.00;98593.06;5022160;28;20599;-48
2022/01/29 06:03:08;;;;;;;18.23;9.57;;;1.50;99.90;;;0.49;100.00;98585.94;5022403;28;20033;-45
2022/01/29 06:05:35;;;;;;;16.73;9.80;;;1.50;99.90;;;0.51;100.00;98569.56;5023932;28;20037;-45
2022/01/29 06:08:01;;;;;;;17.98;10.35;;;1.50;99.90;;;0.51;100.00;98547.91;5021877;28;20392;-45
2022/01/29 06:10:27;;;;;;;20.45;10.63;;;1.50;99.90;;;0.53;100.00;98552.28;5023351;28;20029;-45
2022/01/29 06:13:04;;;;;;;23.27;10.32;;;1.50;99.90;;;0.63;100.00;98562.88;5026738;28;20037;-46
2022/01/29 06:15:35;;;;;;;16.52;9.77;;;1.50;99.90;;;0.76;100.00;98577.88;5022913;28;20021;-46
2022/01/29 06:18:01;;;;;;;16.45;9.35;;;1.60;99.90;;;0.86;100.00;98579.81;5007747;28;20288;-47
2022/01/29 06:20:27;;;;;;;16.85;9.52;;;1.70;99.90;;;0.79;100.00;98575.34;5020895;28;20416;-46
2022/01/29 06:22:53;;;;;;;17.67;9.38;;;1.70;99.90;;;0.72;100.00;98569.16;5023185;28;20029;-48
2022/01/29 06:25:19;;;;;;;17.83;9.82;;;1.70;99.90;;;0.67;100.00;98572.50;5023355;28;20033;-46
2022/01/29 06:27:45;;;;;;;15.52;9.40;;;1.60;99.90;;;0.60;100.00;98571.47;5022547;28;20472;-46
2022/01/29 06:30:11;;;;;;;15.18;9.25;;;1.60;99.90;;;0.54;100.00;98577.41;5020399;28;20025;-45
2022/01/29 06:32:37;;;;;;;17.42;10.30;;;1.60;99.90;;;0.51;100.00;98581.66;5022877;28;20075;-45
2022/01/29 06:35:03;;;;;;;16.90;10.68;;;1.50;99.90;;;0.49;100.00;98570.38;5021261;28;20561;-47
2022/01/29 06:37:29;;;;;;;16.58;10.35;;;1.50;99.90;;;0.54;100.00;98574.81;5019867;28;20526;-41
2022/01/29 06:39:55;;;;;;;16.55;10.25;;;1.50;99.90;;;0.57;100.00;98568.81;5021849;28;20033;-47
2022/01/29 06:42:21;;;;;;;19.92;11.55;;;1.50;99.90;;;0.55;100.00;98560.97;5023184;28;20556;-40
2022/01/29 06:44:46;;;;;;;18.02;11.23;;;1.50;99.90;;;0.58;100.00;98573.16;5023888;28;20061;-46
2022/01/29 06:47:12;;;;;;;19.73;11.07;;;1.50;99.90;;;0.54;100.00;98593.00;5024021;28;20379;-41
2022/01/29 06:49:38;;;;;;;16.77;10.57;;;1.50;99.90;;;0.61;100.00;98604.41;5024068;28;20108;-44
2022/01/29 06:52:04;;;;;;;15.80;9.30;;;1.50;99.90;;;0.66;100.00;98601.88;5024105;28;20510;-45
2022/01/29 06:54:30;;;;;;;15.80;9.02;;;1.50;99.90;;;0.67;100.00;98606.25;5021782;28;20116;-46
2022/01/29 06:56:55;;;;;;;13.57;8.27;;;1.50;99.90;;;0.70;100.00;98603.69;5023445;28;20384;-46
2022/01/29 06:59:21;;;;;;;12.80;8.75;;;1.60;99.90;;;0.74;100.00;98603.81;5026844;28;20065;-44
2022/01/29 07:01:47;;;;;;;15.00;9.13;;;1.60;99.90;;;0.80;100.00;98612.56;5023645;28;20033;-44
2022/01/29 07:04:13;;;;;;;15.40;9.43;;;1.60;99.90;;;0.84;100.00;98589.28;5023351;28;20032;-44
2022/01/29 07:06:38;;;;;;;16.63;10.25;;;1.60;99.90;;;0.90;100.00;98586.81;5028080;28;20402;-43
2022/01/29 07:09:04;;;;;;;15.80;8.93;;;1.70;99.90;;;0.97;100.00;98589.53;5021143;28;20410;-44
2022/01/29 07:11:30;;;;;;;21.17;10.88;;;1.80;99.90;;;0.93;100.00;98586.91;5017858;28;20465;-46
2022/01/29 07:14:03;;;;;;;17.35;10.23;;;1.80;99.90;;;1.03;100.00;98577.56;5020723;28;20036;-45
2022/01/29 07:16:35;;;;;;;15.23;9.07;;;1.90;99.90;;;1.05;100.00;98568.06;5021254;28;20036;-42
2022/01/29 07:19:03;;;;;;;13.88;8.45;;;1.90;99.90;;;1.17;100.00;98572.63;5019058;28;20034;-45
2022/01/29 07:21:29;;;;;;;14.32;7.97;;;2.00;99.90;;;1.29;100.00;98572.88;5022056;28;20030;-44
2022/01/29 07:23:55;;;;;;;12.07;7.78;;;2.10;99.90;;;1.32;100.00;98570.31;5019516;28;20051;-44
2022/01/29 07:26:21;;;;;;;17.42;7.93;;;2.20;99.90;;;1.44;100.00;98576.59;5023033;28;20402;-42
2022/01/29 07:28:46;;;;;;;12.18;7.40;;;2.30;99.90;;;1.47;100.00;98574.03;5024417;28;20022;-46
2022/01/29 07:31:12;;;;;;;12.07;7.53;;;2.30;99.90;;;1.51;100.00;98568.06;5022687;28;20017;-41
2022/01/29 07:33:38;;;;;;;11.60;7.07;;;2.40;99.90;;;1.57;100.00;98562.97;5024414;28;20033;-45
2022/01/29 07:36:05;;;;;;;12.27;7.40;;;2.40;99.90;;;1.64;100.00;98554.41;5025043;28;20033;-47
2022/01/29 07:38:30;;;;;;;13.95;6.90;;;2.50;99.90;;;1.73;100.00;98556.28;5023628;28;20107;-46
2022/01/29 07:40:56;;;;;;;10.07;6.47;;;2.50;99.90;;;1.80;100.00;98545.16;5026202;28;20500;-45
2022/01/29 07:43:22;;;;;;;9.55;6.50;;;2.60;99.90;;;1.86;100.00;98550.44;5024208;28;20029;-45
2022/01/29 07:45:48;;;;;;;9.82;6.75;;;2.60;99.90;;;1.93;100.00;98550.53;5018752;28;20062;-46
2022/01/29 07:48:13;;;;;;;10.57;6.88;;;2.70;99.90;;;1.96;100.00;98555.81;5028797;28;20021;-45
2022/01/29 07:50:39;;;;;;;12.68;6.40;;;2.80;99.90;;;1.98;100.00;98548.91;5024923;28;20532;-47
2022/01/29 07:53:05;;;;;;;9.82;5.40;;;2.80;99.90;;;2.03;100.00;98547.25;5023254;28;20041;-45
2022/01/29 07:55:31;;;;;;;7.82;4.30;;;2.90;99.90;;;2.06;100.00;98549.88;5023087;28;20267;-46
2022/01/29 07:58:01;;;;;;;7.63;4.32;;;2.90;99.90;;;2.09;100.00;98548.19;5006392;28;20026;-47
2022/01/29 08:00:28;;;;;;;9.43;4.38;;;2.90;99.90;;;2.08;100.00;98540.34;5022017;28;20490;-46
2022/01/29 08:02:54;;;;;;;7.60;3.75;;;3.00;99.90;;;2.13;100.00;98543.91;5023952;28;20075;-46
2022/01/29 08:05:22;;;;;;;8.20;3.92;;;3.00;99.90;;;2.15;100.00;98541.34;5023299;28;20096;-41
2022/01/29 08:07:48;;;;;;;7.90;3.15;;;3.00;99.90;;;2.20;100.00;98535.34;5024296;28;20041;-46
2022/01/29 08:10:14;;;;;;;5.68;3.15;;;3.00;99.90;;;2.27;100.00;98531.09;5020775;28;20192;-46
2022/01/29 08:12:40;;;;;;;6.07;3.13;;;3.10;99.90;;;2.28;100.00;98533.75;5025712;28;20751;-48
2022/01/29 08:15:07;;;;;;;4.38;2.78;;;3.10;99.90;;;2.28;100.00;98517.25;5023991;28;20087;-45
2022/01/29 08:17:33;;;;;;;5.15;2.75;;;3.20;99.90;;;2.34;100.00;98532.06;5019582;28;20130;-49
2022/01/29 08:19:58;;;;;;;5.65;2.90;;;3.20;99.90;;;2.37;100.00;98522.56;5023092;28;20026;-45
2022/01/29 08:22:24;;;;;;;6.68;3.00;;;3.20;99.90;;;2.44;100.00;98515.69;5024355;28;20033;-46
2022/01/29 08:24:52;;;;;;;4.45;2.50;;;3.30;99.90;;;2.56;99.58;98509.78;5020843;28;20071;-48
2022/01/29 08:27:18;;;;;;;3.38;2.20;;;3.30;99.90;;;2.68;97.93;98518.63;5020803;28;20049;-46
2022/01/29 08:29:44;;;;;;;6.57;2.72;;;3.50;99.90;;;2.76;94.71;98507.44;5019234;28;20055;-45
2022/01/29 08:32:11;;;;;;;6.43;2.38;;;3.50;99.90;;;2.82;95.32;98503.16;5023959;28;20491;-45
2022/01/29 08:34:38;;;;;;;7.78;3.00;;;3.60;99.90;;;3.00;94.45;98515.53;5015690;28;20743;-43
2022/01/29 08:37:05;;;;;;;6.60;2.65;;;3.80;99.90;;;3.18;92.42;98506.16;5018655;28;20641;-45
2022/01/29 08:39:32;;;;;;;5.30;2.30;;;4.00;99.90;;;3.31;89.63;98512.38;5021445;28;20041;-47
2022/01/29 08:42:00;;;;;;;5.03;2.47;;;4.10;99.90;;;3.48;89.63;98509.91;5024678;28;20041;-44
2022/01/29 08:44:26;;;;;;;5.22;2.22;;;4.20;99.90;;;3.51;87.86;98508.22;5023832;28;20029;-44
2022/01/29 08:46:51;;;;;;;3.90;2.33;;;4.30;99.90;;;3.58;87.93;98512.63;5020488;28;20117;-46
2022/01/29 08:49:18;;;;;;;4.15;2.35;;;4.40;99.90;;;3.64;86.91;98503.97;5024485;28;20509;-45
2022/01/29 08:51:43;;;;;;;6.03;2.42;;;4.50;99.90;;;3.69;86.55;98522.28;5022972;28;20114;-46
2022/01/29 08:54:09;;;;;;;5.45;2.65;;;4.50;99.90;;;3.67;85.71;98522.25;5018553;28;20124;-48
2022/01/29 08:56:35;;;;;;;5.35;2.60;;;4.50;99.90;;;3.67;85.11;98513.56;5020379;28;20060;-46
2022/01/29 08:59:00;;;;;;;5.25;2.35;;;4.50;99.90;;;3.66;84.22;98519.63;5025476;28;20806;-46
2022/01/29 09:01:26;;;;;;;7.10;2.80;;;4.50;99.90;;;3.67;84.35;98509.22;5020772;28;20028;-47
2022/01/29 09:03:52;;;;;;;5.43;2.85;;;4.50;99.90;;;3.72;85.85;98512.75;5024577;28;20034;-47
2022/01/29 09:06:18;;;;;;;5.53;2.90;;;4.50;99.90;;;3.82;86.14;98505.84;5025491;28;20047;-47
2022/01/29 09:08:49;;;;;;;5.32;2.42;;;4.60;99.90;;;3.93;85.51;98501.59;5022645;28;20037;-47
2022/01/29 09:11:16;;;;;;;5.07;2.75;;;4.70;99.90;;;3.96;84.65;98495.53;5021701;28;20480;-49
2022/01/29 09:13:42;;;;;;;7.78;2.47;;;4.80;99.90;;;4.14;84.77;98494.78;5025853;28;20038;-49
2022/01/29 09:16:08;;;;;;;8.00;3.17;;;4.90;99.90;;;4.20;83.52;98500.91;5026196;28;20036;-49
2022/01/29 09:18:33;;;;;;;5.55;2.70;;;5.00;99.90;;;4.16;82.20;98498.25;5027169;28;20021;-49
2022/01/29 09:20:59;;;;;;;7.28;2.85;;;5.00;99.90;;;4.33;82.49;98493.16;5023816;28;20111;-49
2022/01/29 09:23:25;;;;;;;8.52;3.00;;;5.10;99.90;;;4.45;81.56;98489.72;5021997;28;20407;-49
2022/01/29 09:25:51;;;;;;;6.70;3.10;;;5.20;99.90;;;4.46;81.54;98492.34;5020258;28;20033;-49
2022/01/29 09:28:17;;;;;;;5.30;2.53;;;5.30;99.90;;;4.54;81.21;98488.03;5028193;28;20041;-47
2022/01/29 09:30:44;;;;;;;6.78;3.00;;;5.30;99.90;;;4.58;80.69;98481.09;5024609;28;20030;-47
2022/01/29 09:33:11;;;;;;;5.05;3.20;;;5.40;99.90;;;4.59;80.62;98469.75;5016637;28;21866;-45
2022/01/29 09:35:38;;;;;;;6.03;3.60;;;5.40;99.90;;;4.49;79.81;98483.66;5024250;28;20025;-46
2022/01/29 09:38:06;;;;;;;7.18;3.58;;;5.30;99.90;;;4.54;80.04;98487.13;5022814;28;20022;-48
2022/01/29 09:40:32;;;;;;;7.63;3.50;;;5.40;99.90;;;4.81;80.32;98475.94;5030866;28;20037;-47
2022/01/29 09:42:59;;;;;;;5.20;3.47;;;5.60;99.90;;;5.02;79.01;98471.63;5022033;28;20578;-47
2022/01/29 09:45:26;;;;;;;6.18;3.47;;;5.80;99.90;;;5.23;78.97;98476.91;5026367;28;20033;-47
2022/01/29 09:48:01;;;;;;;4.90;3.08;;;6.00;99.90;;;5.33;77.07;98483.91;5007862;28;20052;-46
2022/01/29 09:50:29;;;;;;;7.97;3.45;;;6.20;99.90;;;5.46;76.92;98478.69;5021623;28;20154;-46
2022/01/29 09:52:55;;;;;;;8.85;3.58;;;6.30;99.90;;;5.30;76.71;98467.34;5023828;28;20030;-42
2022/01/29 09:55:23;;;;;;;9.38;3.95;;;6.30;99.90;;;5.44;77.57;98481.31;5025483;28;20036;-46
2022/01/29 09:57:49;;;;;;;9.73;4.00;;;6.30;99.90;;;5.44;77.68;98480.44;5023813;28;20372;-47
2022/01/29 10:00:15;;;;;;;10.95;3.85;;;6.30;99.90;;;5.37;77.51;98479.56;5021357;28;20323;-44
2022/01/29 10:02:41;;;;;;;9.63;3.33;;;6.30;99.90;;;5.45;76.57;98479.56;5026083;28;20525;-48
2022/01/29 10:05:09;;;;;;;5.13;3.30;;;6.30;99.90;;;5.33;78.08;98472.56;5025287;28;20188;-48
2022/01/29 10:07:34;;;;;;;5.43;3.25;;;6.30;99.90;;;5.48;77.85;98472.56;5026741;28;20035;-46
2022/01/29 10:10:03;;;;;;;6.68;3.47;;;6.30;99.90;;;5.54;78.29;98467.38;5022012;28;20417;-45
2022/01/29 10:12:32;;;;;;;6.45;3.47;;;6.40;99.90;;;5.52;79.12;98473.44;5019480;28;20030;-49
2022/01/29 10:15:05;;;;;;;5.60;3.03;;;6.40;99.90;;;5.50;79.57;98469.97;5024914;28;20391;-46
2022/01/29 10:17:51;;;;;;;5.78;2.95;;;6.30;99.90;;;5.42;80.45;98472.59;5021633;28;20244;-44
2022/01/29 10:20:26;;;;;;;9.07;3.50;;;6.30;99.90;;;5.45;80.04;98459.47;5022882;28;20021;-47
2022/01/29 10:22:56;;;;;;;9.45;3.38;;;6.40;99.90;;;5.63;80.35;98468.22;5023555;28;20025;-44
2022/01/29 10:25:28;;;;;;;4.50;2.83;;;6.40;99.90;;;5.61;81.00;98467.34;5021259;28;20037;-46
2022/01/29 10:28:21;;;;;;;4.97;3.10;;;6.40;99.90;;;5.64;80.83;98451.66;5028061;28;20972;-46
2022/01/29 10:30:49;;;;;;;9.73;4.03;;;6.50;99.90;;;5.86;80.99;98452.50;5022599;28;20546;-44
2022/01/29 10:33:29;;;;;;;6.32;2.90;;;6.70;99.90;;;6.03;80.30;98452.50;5024951;28;20091;-43
2022/01/29 10:36:04;;;;;;;5.50;2.90;;;6.80;99.90;;;6.06;79.37;98448.13;5024737;28;20036;-46